createdAt,value
2017-04-19T00:00:35.740Z,68.02
2017-04-19T00:01:35.729Z,68.31
2017-04-19T00:02:35.715Z,68.12
2017-04-19T00:03:35.700Z,68.98
2017-04-19T00:04:35.688Z,68.4
2017-04-19T00:05:35.678Z,67.83
2017-04-19T00:06:35.663Z,68.88
2017-04-19T00:07:35.651Z,69.26
2017-04-19T00:08:35.641Z,68.69
2017-04-19T00:09:35.625Z,68.31
2017-04-19T00:10:35.613Z,68.69
2017-04-19T00:11:35.600Z,68.59
2017-04-19T00:12:35.588Z,69.07
2017-04-19T00:13:35.575Z,68.59
2017-04-19T00:14:35.562Z,68.98
2017-04-19T00:15:35.548Z,68.98
2017-04-19T00:16:35.543Z,68.69
2017-04-19T00:17:35.521Z,68.31
2017-04-19T00:18:35.513Z,68.69
2017-04-19T00:19:35.497Z,68.88
2017-04-19T00:20:35.485Z,69.17
2017-04-19T00:21:35.474Z,68.79
2017-04-19T00:22:35.458Z,68.79
2017-04-19T00:23:35.445Z,68.98
2017-04-19T00:24:35.433Z,68.59
2017-04-19T00:25:35.420Z,68.79
2017-04-19T00:26:35.407Z,68.98
2017-04-19T00:27:35.395Z,68.5
2017-04-19T00:28:35.381Z,68.59
2017-04-19T00:29:35.369Z,68.69
2017-04-19T00:30:35.355Z,69.26
2017-04-19T00:31:35.340Z,68.88
2017-04-19T00:32:35.330Z,68.02
2017-04-19T00:33:35.012Z,68.12
2017-04-19T00:34:35.305Z,69.54
2017-04-19T00:35:35.291Z,68.5
2017-04-19T00:36:35.277Z,68.79
2017-04-19T00:37:35.265Z,68.5
2017-04-19T00:38:35.252Z,69.64
2017-04-19T00:39:35.238Z,68.5
2017-04-19T00:40:35.225Z,68.59
2017-04-19T00:41:35.211Z,68.84
2017-04-19T00:42:35.200Z,69.6
2017-04-19T00:43:35.188Z,68.37
2017-04-19T00:44:35.173Z,68.08
2017-04-19T00:45:35.161Z,68.84
2017-04-19T00:46:35.149Z,68.84
2017-04-19T00:47:35.136Z,69.51
2017-04-19T00:48:35.123Z,68.94
2017-04-19T00:49:35.109Z,68.46
2017-04-19T00:50:35.099Z,68.65
2017-04-19T00:51:35.083Z,69.13
2017-04-19T00:52:35.069Z,68.75
2017-04-19T00:53:35.055Z,69.41
2017-04-19T00:54:35.045Z,68.46
2017-04-19T00:55:35.029Z,68.84
2017-04-19T00:56:35.017Z,68.84
2017-04-19T00:57:35.005Z,68.84
2017-04-19T00:58:34.686Z,68.94
2017-04-19T00:59:34.976Z,68.65
2017-04-19T01:00:34.962Z,68.94
2017-04-19T01:01:34.980Z,68.84
2017-04-19T01:02:34.938Z,68.75
2017-04-19T01:03:34.620Z,68.18
2017-04-19T01:04:34.911Z,68.43
2017-04-19T01:05:34.897Z,68.84
2017-04-19T01:06:34.884Z,69.38
2017-04-19T01:07:34.870Z,69
2017-04-19T01:08:34.856Z,68.71
2017-04-19T01:09:34.844Z,69.19
2017-04-19T01:10:34.829Z,68.43
2017-04-19T01:11:34.512Z,69
2017-04-19T01:12:34.499Z,68.81
2017-04-19T01:13:34.791Z,68.71
2017-04-19T01:14:34.776Z,69.76
2017-04-19T01:15:34.760Z,69.28
2017-04-19T01:16:34.747Z,69.28
2017-04-19T01:17:34.734Z,68.81
2017-04-19T01:18:34.721Z,69.19
2017-04-19T01:19:34.708Z,68.62
2017-04-19T01:20:34.693Z,68.71
2017-04-19T01:21:34.680Z,69.38
2017-04-19T01:22:34.666Z,68.24
2017-04-19T01:23:34.653Z,68.71
2017-04-19T01:24:34.640Z,69
2017-04-19T01:25:34.624Z,68.71
2017-04-19T01:26:34.608Z,68.9
2017-04-19T01:27:34.297Z,68.81
2017-04-19T01:28:34.582Z,69.09
2017-04-19T01:29:34.570Z,68.33
2017-04-19T01:30:34.553Z,68.71
2017-04-19T01:31:34.540Z,69
2017-04-19T01:32:34.527Z,68.71
2017-04-19T01:33:34.513Z,68.9
2017-04-19T01:34:34.497Z,68.96
2017-04-19T01:35:34.484Z,68.68
2017-04-19T01:36:34.471Z,68.12
2017-04-19T01:37:34.456Z,68.59
2017-04-19T01:38:34.446Z,68.87
2017-04-19T01:39:34.428Z,68.3
2017-04-19T01:40:34.414Z,68.3
2017-04-19T01:41:34.399Z,68.87
2017-04-19T01:42:34.386Z,68.68
2017-04-19T01:43:34.375Z,69.53
2017-04-19T01:44:34.358Z,68.87
2017-04-19T01:45:34.342Z,68.59
2017-04-19T01:46:34.329Z,68.77
2017-04-19T01:47:34.011Z,68.21
2017-04-19T01:48:34.000Z,68.21
2017-04-19T01:49:34.286Z,68.68
2017-04-19T01:50:34.273Z,68.49
2017-04-19T01:51:34.257Z,68.3
2017-04-19T01:52:34.244Z,68.68
2017-04-19T01:53:34.231Z,68.77
2017-04-19T01:54:34.217Z,68.96
2017-04-19T01:55:34.201Z,68.21
2017-04-19T01:56:34.185Z,68.49
2017-04-19T01:57:33.869Z,68.87
2017-04-19T01:58:33.856Z,68.3
2017-04-19T01:59:34.142Z,67.64
2017-04-19T02:00:34.128Z,68.49
2017-04-19T02:01:34.116Z,68.68
2017-04-19T02:02:34.108Z,68.96
2017-04-19T02:03:34.086Z,68.49
2017-04-19T02:04:34.072Z,68.68
2017-04-19T02:05:34.056Z,69.15
2017-04-19T02:06:34.041Z,68.68
2017-04-19T02:07:34.028Z,68.02
2017-04-19T02:08:34.020Z,68.4
2017-04-19T02:09:34.006Z,68.4
2017-04-19T02:10:33.682Z,69.06
2017-04-19T02:11:33.970Z,68.21
2017-04-19T02:12:33.956Z,67.93
2017-04-19T02:13:33.942Z,68.12
2017-04-19T02:14:33.926Z,68.4
2017-04-19T02:15:33.916Z,68.02
2017-04-19T02:16:33.899Z,69.06
2017-04-19T02:17:33.891Z,68.68
2017-04-19T02:18:33.869Z,67.93
2017-04-19T02:19:33.855Z,68.4
2017-04-19T02:20:33.841Z,68.12
2017-04-19T02:21:33.826Z,68.49
2017-04-19T02:22:33.811Z,68.3
2017-04-19T02:23:33.799Z,67.93
2017-04-19T02:24:33.782Z,68.02
2017-04-19T02:25:33.768Z,68.87
2017-04-19T02:26:33.755Z,68.4
2017-04-19T02:27:33.737Z,67.89
2017-04-19T02:28:34.939Z,68.27
2017-04-19T02:29:33.709Z,68.36
2017-04-19T02:30:33.694Z,68.93
2017-04-19T02:31:33.681Z,67.89
2017-04-19T02:32:33.665Z,68.65
2017-04-19T02:33:33.651Z,68.08
2017-04-19T02:34:33.636Z,68.65
2017-04-19T02:35:33.622Z,68.27
2017-04-19T02:36:33.605Z,68.93
2017-04-19T02:37:33.589Z,68.65
2017-04-19T02:38:33.578Z,68.46
2017-04-19T02:39:33.562Z,68.27
2017-04-19T02:40:33.547Z,68.74
2017-04-19T02:41:33.536Z,68.74
2017-04-19T02:42:33.521Z,68.55
2017-04-19T02:43:33.504Z,68.74
2017-04-19T02:44:33.488Z,68.74
2017-04-19T02:45:33.476Z,68.17
2017-04-19T02:46:33.458Z,68.17
2017-04-19T02:47:33.442Z,68.27
2017-04-19T02:48:33.432Z,68.17
2017-04-19T02:49:33.414Z,68.84
2017-04-19T02:50:33.397Z,67.89
2017-04-19T02:51:33.382Z,68.65
2017-04-19T02:52:33.372Z,68.27
2017-04-19T02:53:33.356Z,68.17
2017-04-19T02:54:33.338Z,68.93
2017-04-19T02:55:33.334Z,68.84
2017-04-19T02:56:33.308Z,68.65
2017-04-19T02:57:33.294Z,68.74
2017-04-19T02:58:33.279Z,68.17
2017-04-19T02:59:33.264Z,68.84
2017-04-19T03:00:33.248Z,68.74
2017-04-19T03:01:33.233Z,68.93
2017-04-19T03:02:33.218Z,67.79
2017-04-19T03:03:33.205Z,68.46
2017-04-19T03:04:33.192Z,68.46
2017-04-19T03:05:33.175Z,68.55
2017-04-19T03:06:33.160Z,68.74
2017-04-19T03:07:33.144Z,68.93
2017-04-19T03:08:33.132Z,68.46
2017-04-19T03:09:33.114Z,67.89
2017-04-19T03:10:33.099Z,68.36
2017-04-19T03:11:33.210Z,68.27
2017-04-19T03:12:33.069Z,68.08
2017-04-19T03:13:33.059Z,67.89
2017-04-19T03:14:33.039Z,68.36
2017-04-19T03:15:33.024Z,68.27
2017-04-19T03:16:33.009Z,68.17
2017-04-19T03:17:32.994Z,67.98
2017-04-19T03:18:32.981Z,68.74
2017-04-19T03:19:32.962Z,68.36
2017-04-19T03:20:32.949Z,69.02
2017-04-19T03:21:32.934Z,68.74
2017-04-19T03:22:32.918Z,68.17
2017-04-19T03:23:33.105Z,68.27
2017-04-19T03:24:34.102Z,68.17
2017-04-19T03:25:32.873Z,68.27
2017-04-19T03:26:32.860Z,67.89
2017-04-19T03:27:32.842Z,67.98
2017-04-19T03:28:32.827Z,68.17
2017-04-19T03:29:32.811Z,68.46
2017-04-19T03:30:32.795Z,68.65
2017-04-19T03:31:32.782Z,68.17
2017-04-19T03:32:32.766Z,68.08
2017-04-19T03:33:32.753Z,68.17
2017-04-19T03:34:32.739Z,68.17
2017-04-19T03:35:32.719Z,67.79
2017-04-19T03:36:32.706Z,68.84
2017-04-19T03:37:32.690Z,68.46
2017-04-19T03:38:32.870Z,68.55
2017-04-19T03:39:32.356Z,68.74
2017-04-19T03:40:32.341Z,68.84
2017-04-19T03:41:32.628Z,68.17
2017-04-19T03:42:32.613Z,68.17
2017-04-19T03:43:32.598Z,67.89
2017-04-19T03:44:32.583Z,67.79
2017-04-19T03:45:32.567Z,67.95
2017-04-19T03:46:32.551Z,68.33
2017-04-19T03:47:32.538Z,68.23
2017-04-19T03:48:32.523Z,68.27
2017-04-19T03:49:32.508Z,68.27
2017-04-19T03:50:32.492Z,67.98
2017-04-19T03:51:32.477Z,68.33
2017-04-19T03:52:32.464Z,67.85
2017-04-19T03:53:32.447Z,68.14
2017-04-19T03:54:32.430Z,68.14
2017-04-19T03:55:32.415Z,67.95
2017-04-19T03:56:32.400Z,68.14
2017-04-19T03:57:32.081Z,67.76
2017-04-19T03:58:32.372Z,68.04
2017-04-19T03:59:32.356Z,67.95
2017-04-19T04:00:32.339Z,67.66
2017-04-19T04:01:32.324Z,68.14
2017-04-19T04:02:32.309Z,68.04
2017-04-19T04:03:32.292Z,67.85
2017-04-19T04:04:32.278Z,68.14
2017-04-19T04:05:32.262Z,68.23
2017-04-19T04:06:32.247Z,68.8
2017-04-19T04:07:32.231Z,68.23
2017-04-19T04:08:32.214Z,67.95
2017-04-19T04:09:32.202Z,68.33
2017-04-19T04:10:32.435Z,68.14
2017-04-19T04:11:32.172Z,68.36
2017-04-19T04:12:32.159Z,68.65
2017-04-19T04:13:32.140Z,68.93
2017-04-19T04:14:32.125Z,67.98
2017-04-19T04:15:32.109Z,68.14
2017-04-19T04:16:32.094Z,68.17
2017-04-19T04:17:32.078Z,68.36
2017-04-19T04:18:32.063Z,68.65
2017-04-19T04:19:32.047Z,68.74
2017-04-19T04:20:32.032Z,68.93
2017-04-19T04:21:32.015Z,68.27
2017-04-19T04:22:32.001Z,68.93
2017-04-19T04:23:31.803Z,68.84
2017-04-19T04:24:31.971Z,68.08
2017-04-19T04:25:31.957Z,68.17
2017-04-19T04:26:31.942Z,67.98
2017-04-19T04:27:31.927Z,69.4
2017-04-19T04:28:31.913Z,69.44
2017-04-19T04:29:31.898Z,68.02
2017-04-19T04:30:31.884Z,67.83
2017-04-19T04:31:31.871Z,67.83
2017-04-19T04:32:31.857Z,68.96
2017-04-19T04:33:31.842Z,70.76
2017-04-19T04:34:31.829Z,69.15
2017-04-19T04:35:31.816Z,67.93
2017-04-19T04:36:31.498Z,70.51
2017-04-19T04:37:31.788Z,69.76
2017-04-19T04:38:31.775Z,70.61
2017-04-19T04:39:31.762Z,70.51
2017-04-19T04:40:31.750Z,69.57
2017-04-19T04:41:31.737Z,69.47
2017-04-19T04:42:31.730Z,68.43
2017-04-19T04:43:31.711Z,70.42
2017-04-19T04:44:31.700Z,69.85
2017-04-19T04:45:31.688Z,69.7
2017-04-19T04:46:31.673Z,69.7
2017-04-19T04:47:31.664Z,69.41
2017-04-19T04:48:31.649Z,68.65
2017-04-19T04:49:31.638Z,69.7
2017-04-19T04:50:31.628Z,69.79
2017-04-19T04:51:31.618Z,70.26
2017-04-19T04:52:31.603Z,69.22
2017-04-19T04:53:31.592Z,69.54
2017-04-19T04:54:31.582Z,70.78
2017-04-19T04:55:31.571Z,70.2
2017-04-19T04:56:31.561Z,68.88
2017-04-19T04:57:31.549Z,70.49
2017-04-19T04:58:31.537Z,69.64
2017-04-19T04:59:31.528Z,68.31
2017-04-19T05:00:31.518Z,69.73
2017-04-19T05:01:31.508Z,69.82
2017-04-19T05:02:31.498Z,69.67
2017-04-19T05:03:31.488Z,68.54
2017-04-19T05:04:31.476Z,67.58
2017-04-19T05:05:31.465Z,69.2
2017-04-19T05:06:31.165Z,70.05
2017-04-19T05:07:31.447Z,68.91
2017-04-19T05:08:31.437Z,67.33
2017-04-19T05:09:31.427Z,70.28
2017-04-19T05:10:31.418Z,67.71
2017-04-19T05:11:31.409Z,67.62
2017-04-19T05:12:31.400Z,67.81
2017-04-19T05:13:31.390Z,66.2
2017-04-19T05:14:31.383Z,66.29
2017-04-19T05:15:31.375Z,67.9
2017-04-19T05:16:31.365Z,66.96
2017-04-19T05:17:31.358Z,65.66
2017-04-19T05:18:31.046Z,65.66
2017-04-19T05:19:31.341Z,65.95
2017-04-19T05:20:31.333Z,65.28
2017-04-19T05:21:31.324Z,65
2017-04-19T05:22:31.318Z,64.62
2017-04-19T05:23:31.312Z,65.03
2017-04-19T05:24:31.301Z,64.17
2017-04-19T05:25:31.294Z,64.84
2017-04-19T05:26:31.289Z,63.7
2017-04-19T05:27:31.281Z,62.94
2017-04-19T05:28:30.970Z,63.79
2017-04-19T05:29:31.268Z,63.51
2017-04-19T05:30:31.262Z,63.17
2017-04-19T05:31:31.253Z,62.97
2017-04-19T05:32:31.248Z,61.65
2017-04-19T05:33:31.241Z,60.79
2017-04-19T05:34:31.234Z,60.88
2017-04-19T05:35:31.228Z,60.98
2017-04-19T05:36:31.222Z,60.88
2017-04-19T05:37:31.215Z,60.98
2017-04-19T05:38:31.210Z,60.22
2017-04-19T05:39:31.201Z,60.5
2017-04-19T05:40:31.197Z,60.06
2017-04-19T05:41:31.194Z,59.87
2017-04-19T05:42:31.186Z,59.01
2017-04-19T05:43:30.883Z,58.63
2017-04-19T05:44:31.213Z,57.33
2017-04-19T05:45:31.170Z,56.48
2017-04-19T05:46:31.166Z,57.14
2017-04-19T05:47:31.161Z,56.76
2017-04-19T05:48:31.161Z,56.29
2017-04-19T05:49:31.149Z,56
2017-04-19T05:50:31.145Z,56.1
2017-04-19T05:51:31.141Z,56.1
2017-04-19T05:52:31.137Z,55.52
2017-04-19T05:53:31.131Z,54.57
2017-04-19T05:54:31.128Z,55.05
2017-04-19T05:55:31.122Z,54
2017-04-19T05:56:31.118Z,53.94
2017-04-19T05:57:31.114Z,54.1
2017-04-19T05:58:31.110Z,54.67
2017-04-19T05:59:31.105Z,54.67
2017-04-19T06:00:31.102Z,54.98
2017-04-19T06:01:31.096Z,51.93
2017-04-19T06:02:31.093Z,51.56
2017-04-19T06:03:31.088Z,52.41
2017-04-19T06:04:31.085Z,53.75
2017-04-19T06:05:31.082Z,54.32
2017-04-19T06:06:30.777Z,53.36
2017-04-19T06:07:30.771Z,52.44
2017-04-19T06:08:31.069Z,50.73
2017-04-19T06:09:31.066Z,49.87
2017-04-19T06:10:31.066Z,49.42
2017-04-19T06:11:31.060Z,47.61
2017-04-19T06:12:31.059Z,48.47
2017-04-19T06:13:31.056Z,48.27
2017-04-19T06:14:31.054Z,48.37
2017-04-19T06:15:31.049Z,48.85
2017-04-19T06:16:31.050Z,46.58
2017-04-19T06:17:31.044Z,45.25
2017-04-19T06:18:31.043Z,44.49
2017-04-19T06:19:31.039Z,44.87
2017-04-19T06:20:31.042Z,45.35
2017-04-19T06:21:31.037Z,44.2
2017-04-19T06:22:31.033Z,44.78
2017-04-19T06:23:31.030Z,44.59
2017-04-19T06:24:31.035Z,44.32
2017-04-19T06:25:31.028Z,42.13
2017-04-19T06:26:31.030Z,41.08
2017-04-19T06:27:31.027Z,41.27
2017-04-19T06:28:31.029Z,42.03
2017-04-19T06:29:31.028Z,43.06
2017-04-19T06:30:30.720Z,42.2
2017-04-19T06:31:30.997Z,43.16
2017-04-19T06:32:30.717Z,42.87
2017-04-19T06:33:31.020Z,43.54
2017-04-19T06:34:31.018Z,43.91
2017-04-19T06:35:31.017Z,43.25
2017-04-19T06:36:31.016Z,42.4
2017-04-19T06:37:31.016Z,43.06
2017-04-19T06:38:31.015Z,43.06
2017-04-19T06:39:30.719Z,43.54
2017-04-19T06:40:31.014Z,44.46
2017-04-19T06:41:31.022Z,44.09
2017-04-19T06:42:31.013Z,44.09
2017-04-19T06:43:31.015Z,44.46
2017-04-19T06:44:31.013Z,43.99
2017-04-19T06:45:31.013Z,43.61
2017-04-19T06:46:31.013Z,44.27
2017-04-19T06:47:31.013Z,44.66
2017-04-19T06:48:31.015Z,45.51
2017-04-19T06:49:31.012Z,45.61
2017-04-19T06:50:31.010Z,44.56
2017-04-19T06:51:31.009Z,44.27
2017-04-19T06:52:31.010Z,43.82
2017-04-19T06:53:31.009Z,42.68
2017-04-19T06:54:31.010Z,43.25
2017-04-19T06:55:31.010Z,42.11
2017-04-19T06:56:31.010Z,41.46
2017-04-19T06:57:31.010Z,41.46
2017-04-19T06:58:31.011Z,40.89
2017-04-19T06:59:31.010Z,40.99
2017-04-19T07:00:31.017Z,40.97
2017-04-19T07:01:31.012Z,41.53
2017-04-19T07:02:31.014Z,42.77
2017-04-19T07:03:31.015Z,43.42
2017-04-19T07:04:31.015Z,43.54
2017-04-19T07:05:31.012Z,43.82
2017-04-19T07:06:31.012Z,41.82
2017-04-19T07:07:31.481Z,41.25
2017-04-19T07:08:31.014Z,41.53
2017-04-19T07:09:30.711Z,41.92
2017-04-19T07:10:31.015Z,42.96
2017-04-19T07:11:31.018Z,42.58
2017-04-19T07:12:31.015Z,42.68
2017-04-19T07:13:31.014Z,42.11
2017-04-19T07:14:31.020Z,43.42
2017-04-19T07:15:31.018Z,43.23
2017-04-19T07:16:31.017Z,42.96
2017-04-19T07:17:30.713Z,43.9
2017-04-19T07:18:30.713Z,44.18
2017-04-19T07:19:31.019Z,44.09
2017-04-19T07:20:31.016Z,43.42
2017-04-19T07:21:31.318Z,43.35
2017-04-19T07:22:31.018Z,43.06
2017-04-19T07:23:31.019Z,42.77
2017-04-19T07:24:31.018Z,43.61
2017-04-19T07:25:31.019Z,43.35
2017-04-19T07:26:31.022Z,43.71
2017-04-19T07:27:31.020Z,43.16
2017-04-19T07:28:31.022Z,40.7
2017-04-19T07:29:31.021Z,39.84
2017-04-19T07:30:30.722Z,38.98
2017-04-19T07:31:30.719Z,39.56
2017-04-19T07:32:30.720Z,40.39
2017-04-19T07:33:31.024Z,40.97
2017-04-19T07:34:31.025Z,41.25
2017-04-19T07:35:31.025Z,41.61
2017-04-19T07:36:31.025Z,42.37
2017-04-19T07:37:31.023Z,44.46
2017-04-19T07:38:31.023Z,44.06
2017-04-19T07:39:31.026Z,43.61
2017-04-19T07:40:31.024Z,43.13
2017-04-19T07:41:31.023Z,43.23
2017-04-19T07:42:31.022Z,43.32
2017-04-19T07:43:31.021Z,43.04
2017-04-19T07:44:31.020Z,43.23
2017-04-19T07:45:31.042Z,43.23
2017-04-19T07:46:31.019Z,43.9
2017-04-19T07:47:31.015Z,44.54
2017-04-19T07:48:31.012Z,44.54
2017-04-19T07:49:31.011Z,44.64
2017-04-19T07:50:31.006Z,44.82
2017-04-19T07:51:31.004Z,44.54
2017-04-19T07:52:31.002Z,45.01
2017-04-19T07:53:30.999Z,45.78
2017-04-19T07:54:30.994Z,44.92
2017-04-19T07:55:30.993Z,46.63
2017-04-19T07:56:30.992Z,47.47
2017-04-19T07:57:30.984Z,47.56
2017-04-19T07:58:30.982Z,48.77
2017-04-19T07:59:30.976Z,49.73
2017-04-19T08:00:30.973Z,50.39
2017-04-19T08:01:30.972Z,50.77
2017-04-19T08:02:30.965Z,52.08
2017-04-19T08:03:30.960Z,52.55
2017-04-19T08:04:30.950Z,52.64
2017-04-19T08:05:30.945Z,52.74
2017-04-19T08:06:30.941Z,52.26
2017-04-19T08:07:30.935Z,51.89
2017-04-19T08:08:30.928Z,52.08
2017-04-19T08:09:30.923Z,51.41
2017-04-19T08:10:30.917Z,52.17
2017-04-19T08:11:30.912Z,52.17
2017-04-19T08:12:30.943Z,52.05
2017-04-19T08:13:30.596Z,52.62
2017-04-19T08:14:30.590Z,52.72
2017-04-19T08:15:30.582Z,53.85
2017-04-19T08:16:30.883Z,54.24
2017-04-19T08:17:31.887Z,53.85
2017-04-19T08:18:32.081Z,54.14
2017-04-19T08:19:30.862Z,54.43
2017-04-19T08:20:30.855Z,54.9
2017-04-19T08:21:30.845Z,55.28
2017-04-19T08:22:30.535Z,55.28
2017-04-19T08:23:30.828Z,54.33
2017-04-19T08:25:30.814Z,54.05
2017-04-19T08:26:30.805Z,53.95
2017-04-19T08:27:30.798Z,53.95
2017-04-19T08:28:30.790Z,53.95
2017-04-19T08:29:30.781Z,53.95
2017-04-19T08:30:30.772Z,54.02
2017-04-19T08:31:30.841Z,54.21
2017-04-19T08:32:30.456Z,54.39
2017-04-19T08:33:30.446Z,54.39
2017-04-19T08:34:30.739Z,54.11
2017-04-19T08:35:30.732Z,53.83
2017-04-19T08:36:31.187Z,53.92
2017-04-19T08:37:30.414Z,52.97
2017-04-19T08:38:30.707Z,52.4
2017-04-19T08:39:30.396Z,52.69
2017-04-19T08:40:30.688Z,54.11
2017-04-19T08:41:30.678Z,53.92
2017-04-19T08:42:30.669Z,53.92
2017-04-19T08:43:30.660Z,54.11
2017-04-19T08:44:30.653Z,53.73
2017-04-19T08:45:30.644Z,53.92
2017-04-19T08:46:30.642Z,53.35
2017-04-19T08:47:30.626Z,53.26
2017-04-19T08:48:30.616Z,53.45
2017-04-19T08:49:31.822Z,52.97
2017-04-19T08:50:31.813Z,53
2017-04-19T08:52:30.582Z,52.05
2017-04-19T08:53:30.605Z,50.74
2017-04-19T08:54:30.565Z,49.98
2017-04-19T08:55:30.555Z,48.94
2017-04-19T08:56:30.548Z,49.22
2017-04-19T08:57:30.539Z,48.46
2017-04-19T08:58:30.532Z,48.46
2017-04-19T08:59:30.523Z,48.75
2017-04-19T09:00:30.211Z,48.66
2017-04-19T09:01:30.507Z,48.37
2017-04-19T09:02:30.498Z,48.46
2017-04-19T09:03:30.493Z,48.66
2017-04-19T09:04:30.486Z,48.77
2017-04-19T09:05:30.473Z,48.49
2017-04-19T09:06:30.465Z,48.49
2017-04-19T09:07:30.457Z,49.22
2017-04-19T09:08:30.449Z,49.6
2017-04-19T09:09:30.137Z,49.98
2017-04-19T09:10:30.129Z,50.84
2017-04-19T09:11:30.428Z,50.37
2017-04-19T09:12:30.416Z,50.65
2017-04-19T09:13:30.409Z,50.93
2017-04-19T09:14:30.399Z,51.22
2017-04-19T09:15:30.395Z,50.37
2017-04-19T09:16:30.392Z,50.74
2017-04-19T09:17:30.374Z,50.43
2017-04-19T09:18:30.366Z,50.81
2017-04-19T09:19:30.360Z,51.39
2017-04-19T09:20:30.352Z,51.86
2017-04-19T09:21:30.341Z,51.79
2017-04-19T09:22:30.334Z,51.31
2017-04-19T09:23:30.324Z,50.08
2017-04-19T09:24:30.317Z,49.32
2017-04-19T09:25:30.307Z,47.61
2017-04-19T09:26:29.996Z,46.75
2017-04-19T09:27:29.988Z,47.04
2017-04-19T09:28:30.317Z,47.61
2017-04-19T09:29:30.278Z,48.18
2017-04-19T09:30:30.266Z,46.09
2017-04-19T09:31:30.259Z,43.52
2017-04-19T09:32:30.248Z,42.79
2017-04-19T09:33:30.848Z,41.46
2017-04-19T09:34:30.232Z,40.5
2017-04-19T09:35:30.225Z,41.17
2017-04-19T09:36:29.914Z,41.64
2017-04-19T09:37:30.210Z,42.31
2017-04-19T09:38:30.202Z,42.5
2017-04-19T09:39:30.193Z,43.35
2017-04-19T09:40:30.185Z,44.02
2017-04-19T09:41:30.179Z,44.31
2017-04-19T09:42:30.172Z,43.93
2017-04-19T09:43:29.858Z,43.35
2017-04-19T09:44:30.155Z,42.33
2017-04-19T09:45:29.845Z,41.19
2017-04-19T09:46:30.141Z,40.9
2017-04-19T09:47:30.132Z,41.07
2017-04-19T09:48:30.128Z,43.45
2017-04-19T09:49:30.120Z,44.59
2017-04-19T09:50:30.110Z,45.26
2017-04-19T09:51:30.106Z,45.26
2017-04-19T09:52:30.097Z,45.92
2017-04-19T09:53:30.088Z,44.87
2017-04-19T09:54:30.082Z,44.97
2017-04-19T09:55:30.070Z,44.95
2017-04-19T09:56:30.063Z,45.33
2017-04-19T09:57:29.753Z,45.8
2017-04-19T09:58:30.047Z,45.8
2017-04-19T09:59:30.040Z,45.61
2017-04-19T10:00:30.036Z,44.38
2017-04-19T10:01:30.024Z,44.57
2017-04-19T10:02:30.016Z,44.95
2017-04-19T10:03:30.009Z,45.52
2017-04-19T10:04:29.697Z,44.85
2017-04-19T10:05:29.992Z,44.67
2017-04-19T10:06:30.013Z,44.85
2017-04-19T10:07:29.980Z,44.78
2017-04-19T10:08:29.969Z,44.31
2017-04-19T10:09:29.960Z,44.12
2017-04-19T10:10:29.952Z,43.45
2017-04-19T10:11:29.945Z,42.79
2017-04-19T10:12:29.633Z,42.02
2017-04-19T10:13:29.930Z,42.6
2017-04-19T10:14:29.921Z,43.16
2017-04-19T10:15:29.611Z,41.66
2017-04-19T10:16:29.906Z,42.69
2017-04-19T10:17:29.897Z,45.26
2017-04-19T10:18:29.587Z,47.44
2017-04-19T10:19:29.885Z,49.54
2017-04-19T10:20:29.876Z,49.32
2017-04-19T10:21:29.868Z,50.27
2017-04-19T10:22:29.862Z,50.08
2017-04-19T10:23:29.850Z,49.79
2017-04-19T10:24:29.944Z,51.12
2017-04-19T10:25:29.837Z,51.31
2017-04-19T10:26:29.829Z,51.15
2017-04-19T10:27:29.821Z,50.68
2017-04-19T10:28:29.813Z,51.06
2017-04-19T10:29:29.805Z,51.43
2017-04-19T10:30:29.795Z,51.43
2017-04-19T10:31:29.787Z,51.53
2017-04-19T10:32:29.780Z,51.82
2017-04-19T10:33:29.772Z,52.1
2017-04-19T10:34:29.765Z,53.05
2017-04-19T10:35:29.759Z,52.86
2017-04-19T10:36:29.750Z,52.58
2017-04-19T10:37:29.740Z,52.76
2017-04-19T10:38:29.732Z,53.24
2017-04-19T10:39:29.726Z,54.1
2017-04-19T10:40:29.717Z,54.57
2017-04-19T10:41:29.709Z,54.57
2017-04-19T10:42:29.701Z,54.96
2017-04-19T10:43:29.692Z,55.24
2017-04-19T10:44:29.685Z,55.81
2017-04-19T10:45:29.680Z,55.81
2017-04-19T10:46:29.669Z,55.52
2017-04-19T10:47:29.662Z,54.57
2017-04-19T10:48:29.654Z,54.57
2017-04-19T10:49:29.645Z,55.52
2017-04-19T10:50:29.639Z,54.38
2017-04-19T10:51:29.631Z,53.81
2017-04-19T10:52:29.620Z,50.2
2017-04-19T10:53:29.615Z,50.01
2017-04-19T10:54:29.303Z,50.04
2017-04-19T10:55:29.599Z,49.56
2017-04-19T10:56:29.593Z,49.11
2017-04-19T10:57:29.587Z,47.68
2017-04-19T10:58:29.579Z,47.02
2017-04-19T10:59:29.568Z,47.97
2017-04-19T11:00:29.561Z,49.68
2017-04-19T11:01:29.552Z,50.99
2017-04-19T11:02:29.547Z,51.93
2017-04-19T11:03:29.544Z,53.15
2017-04-19T11:04:29.531Z,52.76
2017-04-19T11:05:29.523Z,52.96
2017-04-19T11:06:29.516Z,52.67
2017-04-19T11:07:29.511Z,52.58
2017-04-19T11:08:29.502Z,52.86
2017-04-19T11:09:29.191Z,52.86
2017-04-19T11:10:29.486Z,52.39
2017-04-19T11:11:29.478Z,50.68
2017-04-19T11:12:29.469Z,49.82
2017-04-19T11:13:29.463Z,49.63
2017-04-19T11:14:29.454Z,49.63
2017-04-19T11:15:29.446Z,49.06
2017-04-19T11:16:29.440Z,48.68
2017-04-19T11:17:29.430Z,47.92
2017-04-19T11:18:29.122Z,46.2
2017-04-19T11:19:29.414Z,46.68
2017-04-19T11:20:29.414Z,47.16
2017-04-19T11:21:29.400Z,47.82
2017-04-19T11:22:29.392Z,49.46
2017-04-19T11:23:29.384Z,49.91
2017-04-19T11:24:29.398Z,51.08
2017-04-19T11:25:29.369Z,51.46
2017-04-19T11:26:29.361Z,51.93
2017-04-19T11:27:29.355Z,52.41
2017-04-19T11:28:29.348Z,52.01
2017-04-19T11:29:29.340Z,52.76
2017-04-19T11:30:29.029Z,51.82
2017-04-19T11:31:29.328Z,51.82
2017-04-19T11:32:29.017Z,52.01
2017-04-19T11:33:29.311Z,51.18
2017-04-19T11:34:29.302Z,50.42
2017-04-19T11:35:29.295Z,50.42
2017-04-19T11:36:29.290Z,50.89
2017-04-19T11:37:28.978Z,49.56
2017-04-19T11:38:29.276Z,49.27
2017-04-19T11:39:28.963Z,48.61
2017-04-19T11:40:28.954Z,47.97
2017-04-19T11:41:28.948Z,46.54
2017-04-19T11:42:28.944Z,47.11
2017-04-19T11:43:28.933Z,46.92
2017-04-19T11:44:29.229Z,46.63
2017-04-19T11:45:29.225Z,45.68
2017-04-19T11:46:28.911Z,44.82
2017-04-19T11:47:29.207Z,43.97
2017-04-19T11:48:29.203Z,46.35
2017-04-19T11:49:29.194Z,49.77
2017-04-19T11:50:29.186Z,51.1
2017-04-19T11:51:29.180Z,52.61
2017-04-19T11:52:29.424Z,54.03
2017-04-19T11:53:29.165Z,54.98
2017-04-19T11:54:29.158Z,55.93
2017-04-19T11:55:29.151Z,55.93
2017-04-19T11:56:29.148Z,55.62
2017-04-19T11:57:29.391Z,56.19
2017-04-19T11:58:29.131Z,56.48
2017-04-19T11:59:29.123Z,57.43
2017-04-19T12:00:29.118Z,58.18
2017-04-19T12:01:29.110Z,57.59
2017-04-19T12:02:29.351Z,57.68
2017-04-19T12:03:29.093Z,57.97
2017-04-19T12:04:29.090Z,58.16
2017-04-19T12:05:29.078Z,58.63
2017-04-19T12:06:29.069Z,58.73
2017-04-19T12:07:29.361Z,58.98
2017-04-19T12:08:29.055Z,58.73
2017-04-19T12:09:28.742Z,57.75
2017-04-19T12:10:29.037Z,57.94
2017-04-19T12:11:29.033Z,58.03
2017-04-19T12:12:29.270Z,56.35
2017-04-19T12:13:29.012Z,56.92
2017-04-19T12:14:29.003Z,56.23
2017-04-19T12:15:28.997Z,56.16
2017-04-19T12:16:28.683Z,56.26
2017-04-19T12:17:29.280Z,54.93
2017-04-19T12:19:28.961Z,54.45
2017-04-19T12:20:28.649Z,53.69
2017-04-19T12:21:28.943Z,54.07
2017-04-19T12:22:29.237Z,50.68
2017-04-19T12:23:28.930Z,50.56
2017-04-19T12:24:28.917Z,51.06
2017-04-19T12:25:28.908Z,51.25
2017-04-19T12:26:28.597Z,51.15
2017-04-19T12:27:29.192Z,51.62
2017-04-19T12:28:28.884Z,52.48
2017-04-19T12:29:28.571Z,52.29
2017-04-19T12:30:28.868Z,52.84
2017-04-19T12:31:28.860Z,53.12
2017-04-19T12:32:29.113Z,52.93
2017-04-19T12:33:28.858Z,52.84
2017-04-19T12:34:28.855Z,52.64
2017-04-19T12:35:28.823Z,52.93
2017-04-19T12:36:28.816Z,52.64
2017-04-19T12:37:29.156Z,50.96
2017-04-19T12:38:28.798Z,49.91
2017-04-19T12:39:28.787Z,50.1
2017-04-19T12:40:28.780Z,50.96
2017-04-19T12:41:28.467Z,50.58
2017-04-19T12:42:29.011Z,50.29
2017-04-19T12:43:28.753Z,50.2
2017-04-19T12:44:28.745Z,50.2
2017-04-19T12:45:28.747Z,50.2
2017-04-19T12:46:28.729Z,50.1
2017-04-19T12:47:28.968Z,50.2
2017-04-19T12:48:28.710Z,50.1
2017-04-19T12:49:28.704Z,50.58
2017-04-19T12:50:28.693Z,52.13
2017-04-19T12:51:28.685Z,55.71
2017-04-19T12:52:28.927Z,57.14
2017-04-19T12:53:28.667Z,58.28
2017-04-19T12:54:28.852Z,58.95
2017-04-19T12:55:28.650Z,59.33
2017-04-19T12:56:28.339Z,59.68
2017-04-19T12:57:28.938Z,60.06
2017-04-19T12:58:28.625Z,60.06